ASN logo
Accident description
Last updated: 11 December 2017
Status:Preliminary
Date:Thursday 28 April 2016
Time:07:51
Type:Silhouette image of generic E190 model; specific model in this crash may look slightly different
Embraer ERJ 190-100 IGW (ERJ-190AR)
Operator:TAME Ecuador
Registration: HC-COX
C/n / msn: 19000372
First flight: 2010
Engines: 2 General Electric CF34-10E5
Crew:Fatalities: 0 / Occupants: 6
Passengers:Fatalities: 0 / Occupants: 87
Total:Fatalities: 0 / Occupants: 93
Airplane damage: Substantial
Location:Cuenca-Mariscal Lamar International Airport (CUE) (   Ecuador)
Phase: Landing (LDG)
Nature:Domestic Scheduled Passenger
Departure airport:Quito-Mariscal Sucre Airport (UIO/SEQU), Ecuador
Destination airport:Cuenca-Mariscal Lamar International Airport (CUE/SECU), Ecuador
Flightnumber:EQ173
Narrative:
An Embraer ERJ-190, registration HC-COX, operated by TAME as Flight EQ173 from Quito's Mariscal Sucre International Airport experienced an apparent intentional emergency ground-loop during a runway overrun in light rain weather conditions at Mariscal Lamar International Airport (SECU), in Cuenca, Ecuador. The airplane sustained substantial damage and there were no reported injuries among the 6 crew and 87 passengers onboard.
The runway excursion occurred after landing on runway 23. Runway 23 is a 1900 m long runway with an upslope of 15 m (+0.78%). Distance from the centre of the end of the paved runway to the boundary fence and an active road is 31 m.

Classification:
Runway excursion

Sources:
» Cuenca Airport statement
» aerospotter.blogspot.com

METAR Weather report:
12:00 UTC / 07:00 local time:
SECU 281200Z 35003KT 9999 -RA FEW010 OVC030 13/12 Q1027

13:00 UTC / 08:00 local time:
SECU 281300Z 33003KT 8000 -RA FEW010 OVC030 13/12 Q1028
Wind: 330 degrees at 3 knots; visibility 8000 m in light rain; few clouds at 1000 feet, overcast at 3000 feet; Temperature 13°C; Dew point 12°C; QNH 1028 mb


Photos

Add your photo of this accident or aircraft

Video, social media

Map
This map shows the airport of departure and the intended destination of the flight. The line between the airports does not display the exact flight path.
Distance from Quito-Mariscal Sucre Airport to Cuenca-Mariscal Lamar International Airport as the crow flies is 309 km (193 miles).
Accident location: Exact; deduced from official accident report.

This information is not presented as the Flight Safety Foundation or the Aviation Safety Network’s opinion as to the cause of the accident. It is preliminary and is based on the facts as they are known at this time.
languages: languages

Share